sensor_id;sensor_type;location;lat;lon;timestamp;pressure;altitude;pressure_sealevel;temperature;humidity
44979;BME280;67464;52.438;-1.904;2023-02-02T00:01:16;101014.24;;;6.52;100.00
44979;BME280;67464;52.438;-1.904;2023-02-02T00:03:41;101009.73;;;6.23;99.65
44979;BME280;67464;52.438;-1.904;2023-02-02T00:06:07;101011.94;;;6.68;100.00
44979;BME280;67464;52.438;-1.904;2023-02-02T00:08:32;101021.31;;;6.40;97.27
44979;BME280;67464;52.438;-1.904;2023-02-02T00:10:58;101015.82;;;6.23;100.00
44979;BME280;67464;52.438;-1.904;2023-02-02T00:13:24;101009.45;;;6.73;97.48
44979;BME280;67464;52.438;-1.904;2023-02-02T00:15:51;101004.62;;;6.61;99.68
44979;BME280;67464;52.438;-1.904;2023-02-02T00:18:15;100999.18;;;6.82;94.98
44979;BME280;67464;52.438;-1.904;2023-02-02T00:20:41;100995.73;;;7.67;90.49
44979;BME280;67464;52.438;-1.904;2023-02-02T00:23:06;100997.11;;;6.84;91.02
44979;BME280;67464;52.438;-1.904;2023-02-02T00:25:32;100995.76;;;7.42;90.80
44979;BME280;67464;52.438;-1.904;2023-02-02T00:27:58;100997.26;;;7.51;86.31
44979;BME280;67464;52.438;-1.904;2023-02-02T00:30:23;101002.51;;;8.24;83.24
44979;BME280;67464;52.438;-1.904;2023-02-02T00:32:49;101001.70;;;7.49;89.50
44979;BME280;67464;52.438;-1.904;2023-02-02T00:35:15;101009.46;;;7.30;91.87
44979;BME280;67464;52.438;-1.904;2023-02-02T00:37:40;101007.69;;;7.14;91.62
44979;BME280;67464;52.438;-1.904;2023-02-02T00:40:08;101006.54;;;7.10;92.51
44979;BME280;67464;52.438;-1.904;2023-02-02T00:42:33;101005.30;;;7.18;92.32
44979;BME280;67464;52.438;-1.904;2023-02-02T00:44:58;100999.21;;;7.48;88.77
44979;BME280;67464;52.438;-1.904;2023-02-02T00:47:23;101005.66;;;7.03;89.16
44979;BME280;67464;52.438;-1.904;2023-02-02T00:49:49;101001.35;;;7.56;88.67
44979;BME280;67464;52.438;-1.904;2023-02-02T00:52:15;101005.01;;;7.07;90.75
44979;BME280;67464;52.438;-1.904;2023-02-02T00:54:40;101002.39;;;7.27;88.59
44979;BME280;67464;52.438;-1.904;2023-02-02T00:57:05;101006.76;;;7.58;89.96
44979;BME280;67464;52.438;-1.904;2023-02-02T00:59:31;101008.92;;;7.55;91.83
44979;BME280;67464;52.438;-1.904;2023-02-02T01:01:57;101005.67;;;7.59;91.40
44979;BME280;67464;52.438;-1.904;2023-02-02T01:04:22;101007.47;;;7.04;93.60
44979;BME280;67464;52.438;-1.904;2023-02-02T01:06:48;101009.01;;;6.82;90.87
44979;BME280;67464;52.438;-1.904;2023-02-02T01:09:13;101010.41;;;7.56;87.13
44979;BME280;67464;52.438;-1.904;2023-02-02T01:11:39;101024.38;;;6.84;94.22
44979;BME280;67464;52.438;-1.904;2023-02-02T01:14:04;101020.43;;;6.93;96.63
44979;BME280;67464;52.438;-1.904;2023-02-02T01:16:30;101019.73;;;7.16;94.18
44979;BME280;67464;52.438;-1.904;2023-02-02T01:18:55;101019.96;;;6.98;96.76
44979;BME280;67464;52.438;-1.904;2023-02-02T01:21:21;101014.76;;;7.22;93.12
44979;BME280;67464;52.438;-1.904;2023-02-02T01:23:47;101018.42;;;6.41;94.26
44979;BME280;67464;52.438;-1.904;2023-02-02T01:26:13;101020.13;;;6.74;95.28
44979;BME280;67464;52.438;-1.904;2023-02-02T01:28:39;101020.73;;;6.26;99.82
44979;BME280;67464;52.438;-1.904;2023-02-02T01:31:06;101022.62;;;6.47;100.00
44979;BME280;67464;52.438;-1.904;2023-02-02T01:33:30;101026.67;;;6.41;98.69
44979;BME280;67464;52.438;-1.904;2023-02-02T01:35:55;101022.27;;;6.71;99.24
44979;BME280;67464;52.438;-1.904;2023-02-02T01:38:22;101022.45;;;6.69;98.68
44979;BME280;67464;52.438;-1.904;2023-02-02T01:40:48;101011.49;;;5.84;100.00
44979;BME280;67464;52.438;-1.904;2023-02-02T01:43:22;101013.06;;;6.39;100.00
44979;BME280;67464;52.438;-1.904;2023-02-02T01:45:38;101007.06;;;5.99;100.00
44979;BME280;67464;52.438;-1.904;2023-02-02T01:48:04;101001.77;;;5.87;100.00
44979;BME280;67464;52.438;-1.904;2023-02-02T01:50:32;100998.58;;;5.88;100.00
44979;BME280;67464;52.438;-1.904;2023-02-02T01:52:58;100996.99;;;5.42;100.00
44979;BME280;67464;52.438;-1.904;2023-02-02T01:55:23;100994.20;;;5.56;100.00
44979;BME280;67464;52.438;-1.904;2023-02-02T01:57:51;100988.36;;;5.52;100.00
44979;BME280;67464;52.438;-1.904;2023-02-02T02:00:14;100981.39;;;5.83;100.00
44979;BME280;67464;52.438;-1.904;2023-02-02T02:02:39;100978.61;;;5.38;100.00
44979;BME280;67464;52.438;-1.904;2023-02-02T02:05:05;100977.01;;;5.58;100.00
44979;BME280;67464;52.438;-1.904;2023-02-02T02:07:30;100976.54;;;5.98;100.00
44979;BME280;67464;52.438;-1.904;2023-02-02T02:09:55;100979.85;;;5.36;100.00
44979;BME280;67464;52.438;-1.904;2023-02-02T02:12:21;100988.28;;;4.76;100.00
44979;BME280;67464;52.438;-1.904;2023-02-02T02:14:48;100997.54;;;4.99;100.00
44979;BME280;67464;52.438;-1.904;2023-02-02T02:17:23;100999.39;;;4.71;100.00
44979;BME280;67464;52.438;-1.904;2023-02-02T02:22:09;100995.10;;;5.10;100.00
44979;BME280;67464;52.438;-1.904;2023-02-02T02:24:49;100993.41;;;4.64;100.00
44979;BME280;67464;52.438;-1.904;2023-02-02T02:27:09;100993.65;;;5.18;100.00
44979;BME280;67464;52.438;-1.904;2023-02-02T02:29:35;100994.10;;;5.53;100.00
44979;BME280;67464;52.438;-1.904;2023-02-02T02:31:58;101004.79;;;5.28;100.00
44979;BME280;67464;52.438;-1.904;2023-02-02T02:34:15;101003.22;;;5.51;100.00
44979;BME280;67464;52.438;-1.904;2023-02-02T02:36:44;101005.09;;;5.87;100.00
44979;BME280;67464;52.438;-1.904;2023-02-02T02:39:09;101004.55;;;6.03;100.00
44979;BME280;67464;52.438;-1.904;2023-02-02T02:41:33;100997.37;;;5.67;100.00
44979;BME280;67464;52.438;-1.904;2023-02-02T02:43:59;100995.70;;;5.82;100.00
44979;BME280;67464;52.438;-1.904;2023-02-02T02:46:21;100994.04;;;5.87;100.00
44979;BME280;67464;52.438;-1.904;2023-02-02T02:48:46;100992.51;;;5.94;100.00
44979;BME280;67464;52.438;-1.904;2023-02-02T02:53:38;101002.51;;;6.55;98.48
44979;BME280;67464;52.438;-1.904;2023-02-02T02:56:11;100997.98;;;5.97;99.48
44979;BME280;67464;52.438;-1.904;2023-02-02T02:58:34;100993.43;;;6.14;100.00
44979;BME280;67464;52.438;-1.904;2023-02-02T03:01:02;100987.55;;;6.04;100.00
44979;BME280;67464;52.438;-1.904;2023-02-02T03:03:30;100987.20;;;5.63;100.00
44979;BME280;67464;52.438;-1.904;2023-02-02T03:05:51;100985.84;;;6.07;100.00
44979;BME280;67464;52.438;-1.904;2023-02-02T03:08:16;100985.87;;;4.96;100.00
44979;BME280;67464;52.438;-1.904;2023-02-02T03:10:38;100986.16;;;5.88;100.00
44979;BME280;67464;52.438;-1.904;2023-02-02T03:13:06;100985.04;;;5.80;100.00
44979;BME280;67464;52.438;-1.904;2023-02-02T03:15:28;100989.16;;;6.32;98.59
44979;BME280;67464;52.438;-1.904;2023-02-02T03:17:54;100989.72;;;5.97;99.91
44979;BME280;67464;52.438;-1.904;2023-02-02T03:20:20;100993.19;;;5.45;100.00
44979;BME280;67464;52.438;-1.904;2023-02-02T03:22:46;100996.04;;;6.13;100.00
44979;BME280;67464;52.438;-1.904;2023-02-02T03:25:11;100988.77;;;5.94;100.00
44979;BME280;67464;52.438;-1.904;2023-02-02T03:27:38;100991.99;;;5.03;100.00
44979;BME280;67464;52.438;-1.904;2023-02-02T03:30:03;100993.71;;;5.24;100.00
44979;BME280;67464;52.438;-1.904;2023-02-02T03:32:29;100990.54;;;5.42;100.00
44979;BME280;67464;52.438;-1.904;2023-02-02T03:34:54;100994.74;;;5.71;100.00
44979;BME280;67464;52.438;-1.904;2023-02-02T03:37:20;100994.68;;;5.33;100.00
44979;BME280;67464;52.438;-1.904;2023-02-02T03:39:46;100996.98;;;5.13;100.00
44979;BME280;67464;52.438;-1.904;2023-02-02T03:42:11;101001.60;;;4.73;100.00
44979;BME280;67464;52.438;-1.904;2023-02-02T03:44:37;101000.36;;;5.31;100.00
44979;BME280;67464;52.438;-1.904;2023-02-02T03:47:03;100999.64;;;4.53;100.00
44979;BME280;67464;52.438;-1.904;2023-02-02T03:49:28;100999.49;;;5.07;100.00
44979;BME280;67464;52.438;-1.904;2023-02-02T03:51:54;100993.73;;;4.90;100.00
44979;BME280;67464;52.438;-1.904;2023-02-02T03:54:20;100990.21;;;4.19;100.00
44979;BME280;67464;52.438;-1.904;2023-02-02T03:56:46;100985.06;;;4.54;100.00
44979;BME280;67464;52.438;-1.904;2023-02-02T03:59:11;100975.42;;;4.55;100.00
44979;BME280;67464;52.438;-1.904;2023-02-02T04:01:37;100970.32;;;4.28;100.00
44979;BME280;67464;52.438;-1.904;2023-02-02T04:04:03;100967.96;;;3.73;100.00
44979;BME280;67464;52.438;-1.904;2023-02-02T04:06:28;100969.47;;;3.43;100.00
44979;BME280;67464;52.438;-1.904;2023-02-02T04:08:54;100971.17;;;4.09;100.00
44979;BME280;67464;52.438;-1.904;2023-02-02T04:11:20;100973.42;;;3.69;100.00
44979;BME280;67464;52.438;-1.904;2023-02-02T04:13:45;100979.39;;;3.72;100.00
44979;BME280;67464;52.438;-1.904;2023-02-02T04:16:12;100982.50;;;3.70;100.00
44979;BME280;67464;52.438;-1.904;2023-02-02T04:18:37;100984.80;;;3.80;100.00
44979;BME280;67464;52.438;-1.904;2023-02-02T04:21:04;100985.98;;;4.23;100.00
44979;BME280;67464;52.438;-1.904;2023-02-02T04:23:29;100981.99;;;4.07;100.00
44979;BME280;67464;52.438;-1.904;2023-02-02T04:25:55;100981.98;;;3.52;100.00
44979;BME280;67464;52.438;-1.904;2023-02-02T04:28:21;100984.05;;;3.37;100.00
44979;BME280;67464;52.438;-1.904;2023-02-02T04:30:46;100982.93;;;3.95;100.00
44979;BME280;67464;52.438;-1.904;2023-02-02T04:33:12;100985.90;;;2.97;100.00
44979;BME280;67464;52.438;-1.904;2023-02-02T04:35:37;100975.48;;;3.39;100.00
44979;BME280;67464;52.438;-1.904;2023-02-02T04:38:03;100970.01;;;3.88;100.00
44979;BME280;67464;52.438;-1.904;2023-02-02T04:40:29;100963.81;;;3.67;100.00
44979;BME280;67464;52.438;-1.904;2023-02-02T04:42:56;100972.26;;;4.00;100.00
44979;BME280;67464;52.438;-1.904;2023-02-02T04:45:21;100968.74;;;3.86;100.00
44979;BME280;67464;52.438;-1.904;2023-02-02T04:47:47;100964.43;;;3.52;100.00
44979;BME280;67464;52.438;-1.904;2023-02-02T04:50:12;100964.03;;;3.57;100.00
44979;BME280;67464;52.438;-1.904;2023-02-02T04:52:38;100962.89;;;3.94;100.00
44979;BME280;67464;52.438;-1.904;2023-02-02T04:55:04;100959.53;;;3.75;100.00
44979;BME280;67464;52.438;-1.904;2023-02-02T04:57:29;100962.03;;;3.83;100.00
44979;BME280;67464;52.438;-1.904;2023-02-02T04:59:55;100962.07;;;3.47;100.00
44979;BME280;67464;52.438;-1.904;2023-02-02T05:02:21;100960.08;;;3.97;100.00
44979;BME280;67464;52.438;-1.904;2023-02-02T05:04:46;100958.28;;;4.25;100.00
44979;BME280;67464;52.438;-1.904;2023-02-02T05:07:12;100963.80;;;3.76;100.00
44979;BME280;67464;52.438;-1.904;2023-02-02T05:09:38;100963.32;;;3.98;100.00
44979;BME280;67464;52.438;-1.904;2023-02-02T05:12:04;100972.13;;;4.11;100.00
44979;BME280;67464;52.438;-1.904;2023-02-02T05:14:29;100972.08;;;4.13;100.00
44979;BME280;67464;52.438;-1.904;2023-02-02T05:16:54;100967.16;;;4.19;100.00
44979;BME280;67464;52.438;-1.904;2023-02-02T05:19:20;100968.01;;;3.65;100.00
44979;BME280;67464;52.438;-1.904;2023-02-02T05:21:46;100966.21;;;3.55;100.00
44979;BME280;67464;52.438;-1.904;2023-02-02T05:24:11;100965.11;;;3.25;100.00
44979;BME280;67464;52.438;-1.904;2023-02-02T05:26:37;100965.32;;;3.98;100.00
44979;BME280;67464;52.438;-1.904;2023-02-02T05:29:03;100964.86;;;3.53;100.00
44979;BME280;67464;52.438;-1.904;2023-02-02T05:31:29;100964.81;;;4.29;100.00
44979;BME280;67464;52.438;-1.904;2023-02-02T05:33:54;100967.15;;;4.55;100.00
44979;BME280;67464;52.438;-1.904;2023-02-02T05:36:20;100963.79;;;5.69;100.00
44979;BME280;67464;52.438;-1.904;2023-02-02T05:38:46;100963.17;;;5.21;100.00
44979;BME280;67464;52.438;-1.904;2023-02-02T05:41:11;100968.55;;;5.49;100.00
44979;BME280;67464;52.438;-1.904;2023-02-02T05:43:37;100969.98;;;5.58;100.00
44979;BME280;67464;52.438;-1.904;2023-02-02T05:46:03;100969.13;;;4.88;100.00
44979;BME280;67464;52.438;-1.904;2023-02-02T05:48:29;100973.04;;;4.47;100.00
44979;BME280;67464;52.438;-1.904;2023-02-02T05:50:59;100970.88;;;4.98;100.00
44979;BME280;67464;52.438;-1.904;2023-02-02T05:53:20;100970.89;;;4.34;100.00
44979;BME280;67464;52.438;-1.904;2023-02-02T05:55:46;100965.78;;;4.87;100.00
44979;BME280;67464;52.438;-1.904;2023-02-02T05:58:12;100968.20;;;4.47;100.00
44979;BME280;67464;52.438;-1.904;2023-02-02T06:00:38;100968.12;;;4.57;100.00
44979;BME280;67464;52.438;-1.904;2023-02-02T06:03:03;100974.28;;;4.22;100.00
44979;BME280;67464;52.438;-1.904;2023-02-02T06:05:29;100976.32;;;4.03;100.00
44979;BME280;67464;52.438;-1.904;2023-02-02T06:07:55;100975.18;;;4.21;100.00
44979;BME280;67464;52.438;-1.904;2023-02-02T06:10:21;100972.00;;;4.43;100.00
44979;BME280;67464;52.438;-1.904;2023-02-02T06:12:46;100971.34;;;4.30;100.00
44979;BME280;67464;52.438;-1.904;2023-02-02T06:15:12;100970.36;;;4.05;100.00
44979;BME280;67464;52.438;-1.904;2023-02-02T06:17:38;100970.45;;;4.18;100.00
44979;BME280;67464;52.438;-1.904;2023-02-02T06:20:05;100972.61;;;4.18;100.00
44979;BME280;67464;52.438;-1.904;2023-02-02T06:22:31;100972.79;;;4.09;100.00
44979;BME280;67464;52.438;-1.904;2023-02-02T06:24:56;100970.17;;;3.61;100.00
44979;BME280;67464;52.438;-1.904;2023-02-02T06:27:21;100975.30;;;3.38;100.00
44979;BME280;67464;52.438;-1.904;2023-02-02T06:29:47;100976.12;;;4.19;100.00
44979;BME280;67464;52.438;-1.904;2023-02-02T06:32:13;100973.44;;;3.54;100.00
44979;BME280;67464;52.438;-1.904;2023-02-02T06:34:38;100980.37;;;3.86;100.00
44979;BME280;67464;52.438;-1.904;2023-02-02T06:37:04;100981.99;;;3.63;100.00
44979;BME280;67464;52.438;-1.904;2023-02-02T06:39:30;100985.16;;;3.88;100.00
44979;BME280;67464;52.438;-1.904;2023-02-02T06:41:56;100984.99;;;4.06;100.00
44979;BME280;67464;52.438;-1.904;2023-02-02T06:44:21;100985.89;;;4.01;100.00
44979;BME280;67464;52.438;-1.904;2023-02-02T06:46:47;100989.23;;;4.47;100.00
44979;BME280;67464;52.438;-1.904;2023-02-02T06:49:13;100992.63;;;4.28;100.00
44979;BME280;67464;52.438;-1.904;2023-02-02T06:51:39;100991.51;;;4.58;100.00
44979;BME280;67464;52.438;-1.904;2023-02-02T06:54:04;100990.69;;;4.45;100.00
44979;BME280;67464;52.438;-1.904;2023-02-02T06:56:30;100997.30;;;4.64;100.00
44979;BME280;67464;52.438;-1.904;2023-02-02T06:58:56;100995.43;;;4.98;100.00
44979;BME280;67464;52.438;-1.904;2023-02-02T07:01:22;100994.57;;;5.19;100.00
44979;BME280;67464;52.438;-1.904;2023-02-02T07:03:47;100993.96;;;4.13;100.00
44979;BME280;67464;52.438;-1.904;2023-02-02T07:06:16;100993.38;;;4.49;100.00
44979;BME280;67464;52.438;-1.904;2023-02-02T07:08:39;100994.58;;;4.77;100.00
44979;BME280;67464;52.438;-1.904;2023-02-02T07:11:05;100997.69;;;4.31;100.00
44979;BME280;67464;52.438;-1.904;2023-02-02T07:13:31;100999.87;;;4.81;100.00
44979;BME280;67464;52.438;-1.904;2023-02-02T07:15:56;101002.48;;;4.51;100.00
44979;BME280;67464;52.438;-1.904;2023-02-02T07:18:22;101002.35;;;4.96;100.00
44979;BME280;67464;52.438;-1.904;2023-02-02T07:20:48;101001.13;;;4.57;100.00
44979;BME280;67464;52.438;-1.904;2023-02-02T07:23:13;100997.00;;;4.86;100.00
44979;BME280;67464;52.438;-1.904;2023-02-02T07:25:39;100998.69;;;5.26;100.00
44979;BME280;67464;52.438;-1.904;2023-02-02T07:28:05;101003.05;;;5.24;100.00
44979;BME280;67464;52.438;-1.904;2023-02-02T07:30:31;101003.59;;;5.00;100.00
44979;BME280;67464;52.438;-1.904;2023-02-02T07:32:56;101002.32;;;4.75;100.00
44979;BME280;67464;52.438;-1.904;2023-02-02T07:35:22;101008.16;;;5.17;100.00
44979;BME280;67464;52.438;-1.904;2023-02-02T07:37:50;101009.34;;;5.38;100.00
44979;BME280;67464;52.438;-1.904;2023-02-02T07:40:14;101005.32;;;5.28;100.00
44979;BME280;67464;52.438;-1.904;2023-02-02T07:42:39;101012.91;;;5.18;100.00
44979;BME280;67464;52.438;-1.904;2023-02-02T07:45:06;101015.37;;;4.84;100.00
44979;BME280;67464;52.438;-1.904;2023-02-02T07:47:31;101013.92;;;5.00;100.00
44979;BME280;67464;52.438;-1.904;2023-02-02T07:49:57;101016.37;;;4.96;100.00
44979;BME280;67464;52.438;-1.904;2023-02-02T07:52:23;101016.79;;;5.11;100.00
44979;BME280;67464;52.438;-1.904;2023-02-02T07:54:48;101014.15;;;5.10;100.00
44979;BME280;67464;52.438;-1.904;2023-02-02T07:57:16;101019.94;;;4.76;100.00
44979;BME280;67464;52.438;-1.904;2023-02-02T07:59:39;101018.38;;;4.57;100.00
44979;BME280;67464;52.438;-1.904;2023-02-02T08:02:05;101012.29;;;4.90;100.00
44979;BME280;67464;52.438;-1.904;2023-02-02T08:04:31;101017.34;;;5.33;100.00
44979;BME280;67464;52.438;-1.904;2023-02-02T08:06:57;101015.82;;;5.08;100.00
44979;BME280;67464;52.438;-1.904;2023-02-02T08:09:22;101014.37;;;5.76;100.00
44979;BME280;67464;52.438;-1.904;2023-02-02T08:11:48;101018.05;;;4.96;100.00
44979;BME280;67464;52.438;-1.904;2023-02-02T08:14:14;101018.94;;;5.35;100.00
44979;BME280;67464;52.438;-1.904;2023-02-02T08:16:39;101020.23;;;5.35;100.00
44979;BME280;67464;52.438;-1.904;2023-02-02T08:19:05;101024.44;;;5.66;100.00
44979;BME280;67464;52.438;-1.904;2023-02-02T08:21:32;101026.89;;;5.35;100.00
44979;BME280;67464;52.438;-1.904;2023-02-02T08:23:57;101033.22;;;6.13;100.00
44979;BME280;67464;52.438;-1.904;2023-02-02T08:26:24;101030.11;;;5.94;100.00
44979;BME280;67464;52.438;-1.904;2023-02-02T08:28:52;101029.58;;;5.76;100.00
44979;BME280;67464;52.438;-1.904;2023-02-02T08:31:16;101033.37;;;6.00;100.00
44979;BME280;67464;52.438;-1.904;2023-02-02T08:33:40;101030.99;;;6.35;100.00
44979;BME280;67464;52.438;-1.904;2023-02-02T08:36:09;101031.42;;;6.11;100.00
44979;BME280;67464;52.438;-1.904;2023-02-02T08:38:31;101029.07;;;6.31;100.00
44979;BME280;67464;52.438;-1.904;2023-02-02T08:41:03;101031.18;;;6.56;100.00
44979;BME280;67464;52.438;-1.904;2023-02-02T08:43:23;101030.63;;;6.58;100.00
44979;BME280;67464;52.438;-1.904;2023-02-02T08:45:50;101035.24;;;6.51;100.00
44979;BME280;67464;52.438;-1.904;2023-02-02T08:48:14;101030.55;;;6.85;100.00
44979;BME280;67464;52.438;-1.904;2023-02-02T08:50:40;101032.25;;;7.12;100.00
44979;BME280;67464;52.438;-1.904;2023-02-02T08:53:05;101030.33;;;6.90;100.00
44979;BME280;67464;52.438;-1.904;2023-02-02T08:55:31;101030.79;;;6.58;100.00
44979;BME280;67464;52.438;-1.904;2023-02-02T08:57:57;101028.90;;;6.75;100.00
44979;BME280;67464;52.438;-1.904;2023-02-02T09:00:23;101022.90;;;7.85;100.00
44979;BME280;67464;52.438;-1.904;2023-02-02T09:02:49;101026.23;;;7.51;100.00
44979;BME280;67464;52.438;-1.904;2023-02-02T09:05:14;101033.92;;;7.47;100.00
44979;BME280;67464;52.438;-1.904;2023-02-02T09:07:40;101029.01;;;8.22;100.00
44979;BME280;67464;52.438;-1.904;2023-02-02T09:10:06;101034.59;;;7.55;100.00
44979;BME280;67464;52.438;-1.904;2023-02-02T09:12:31;101036.51;;;7.73;100.00
44979;BME280;67464;52.438;-1.904;2023-02-02T09:14:57;101035.79;;;7.35;100.00
44979;BME280;67464;52.438;-1.904;2023-02-02T09:17:23;101032.05;;;8.13;100.00
44979;BME280;67464;52.438;-1.904;2023-02-02T09:19:49;101034.66;;;8.01;100.00
44979;BME280;67464;52.438;-1.904;2023-02-02T09:22:15;101032.30;;;8.74;100.00
44979;BME280;67464;52.438;-1.904;2023-02-02T09:24:40;101034.28;;;8.73;100.00
44979;BME280;67464;52.438;-1.904;2023-02-02T09:27:05;101038.43;;;8.58;100.00
44979;BME280;67464;52.438;-1.904;2023-02-02T09:29:31;101042.65;;;7.82;100.00
44979;BME280;67464;52.438;-1.904;2023-02-02T09:31:56;101042.27;;;7.43;100.00
44979;BME280;67464;52.438;-1.904;2023-02-02T09:34:22;101037.28;;;6.61;100.00
44979;BME280;67464;52.438;-1.904;2023-02-02T09:36:48;101037.92;;;6.02;100.00
44979;BME280;67464;52.438;-1.904;2023-02-02T09:39:13;101049.05;;;7.14;100.00
44979;BME280;67464;52.438;-1.904;2023-02-02T09:41:54;101049.42;;;7.43;100.00
44979;BME280;67464;52.438;-1.904;2023-02-02T09:44:09;101052.30;;;8.06;100.00
44979;BME280;67464;52.438;-1.904;2023-02-02T09:46:38;101046.84;;;7.72;100.00
44979;BME280;67464;52.438;-1.904;2023-02-02T09:49:00;101048.14;;;7.95;100.00
44979;BME280;67464;52.438;-1.904;2023-02-02T09:51:24;101047.54;;;8.64;100.00
44979;BME280;67464;52.438;-1.904;2023-02-02T09:53:55;101042.76;;;8.71;100.00
44979;BME280;67464;52.438;-1.904;2023-02-02T09:56:20;101036.02;;;9.06;100.00
44979;BME280;67464;52.438;-1.904;2023-02-02T09:58:43;101026.56;;;8.83;100.00
44979;BME280;67464;52.438;-1.904;2023-02-02T10:01:07;101031.59;;;8.13;100.00
44979;BME280;67464;52.438;-1.904;2023-02-02T10:03:34;101029.96;;;7.89;100.00
44979;BME280;67464;52.438;-1.904;2023-02-02T10:06:00;101024.86;;;8.64;100.00
44979;BME280;67464;52.438;-1.904;2023-02-02T10:08:27;101032.36;;;7.82;100.00
44979;BME280;67464;52.438;-1.904;2023-02-02T10:10:48;101032.68;;;8.40;100.00
44979;BME280;67464;52.438;-1.904;2023-02-02T10:13:16;101030.05;;;8.61;100.00
44979;BME280;67464;52.438;-1.904;2023-02-02T10:15:41;101034.20;;;8.94;100.00
44979;BME280;67464;52.438;-1.904;2023-02-02T10:18:10;101036.42;;;10.05;100.00
44979;BME280;67464;52.438;-1.904;2023-02-02T10:20:37;101041.15;;;10.30;100.00
44979;BME280;67464;52.438;-1.904;2023-02-02T10:22:58;101054.49;;;10.54;100.00
44979;BME280;67464;52.438;-1.904;2023-02-02T10:25:21;101062.31;;;10.42;99.47
44979;BME280;67464;52.438;-1.904;2023-02-02T10:27:53;101064.60;;;10.21;100.00
44979;BME280;67464;52.438;-1.904;2023-02-02T10:30:17;101061.49;;;10.36;100.00
44979;BME280;67464;52.438;-1.904;2023-02-02T10:32:44;101061.38;;;10.30;100.00
44979;BME280;67464;52.438;-1.904;2023-02-02T10:37:33;101061.98;;;9.98;100.00
44979;BME280;67464;52.438;-1.904;2023-02-02T10:40:10;101061.02;;;9.80;100.00
44979;BME280;67464;52.438;-1.904;2023-02-02T10:42:28;101062.60;;;9.72;100.00
44979;BME280;67464;52.438;-1.904;2023-02-02T10:44:48;101068.05;;;9.07;100.00
44979;BME280;67464;52.438;-1.904;2023-02-02T10:47:16;101071.11;;;8.45;100.00
44979;BME280;67464;52.438;-1.904;2023-02-02T10:49:38;101062.89;;;9.07;100.00
44979;BME280;67464;52.438;-1.904;2023-02-02T10:52:12;101060.50;;;8.07;100.00
44979;BME280;67464;52.438;-1.904;2023-02-02T10:54:39;101067.96;;;8.23;100.00
44979;BME280;67464;52.438;-1.904;2023-02-02T10:56:55;101071.82;;;8.40;100.00
44979;BME280;67464;52.438;-1.904;2023-02-02T10:59:26;101072.27;;;8.04;100.00
44979;BME280;67464;52.438;-1.904;2023-02-02T11:01:46;101069.44;;;8.87;100.00
44979;BME280;67464;52.438;-1.904;2023-02-02T11:04:11;101071.94;;;9.45;100.00
44979;BME280;67464;52.438;-1.904;2023-02-02T11:06:36;101065.50;;;10.25;100.00
44979;BME280;67464;52.438;-1.904;2023-02-02T11:09:02;101068.10;;;9.19;100.00
44979;BME280;67464;52.438;-1.904;2023-02-02T11:11:31;101062.30;;;9.61;100.00
44979;BME280;67464;52.438;-1.904;2023-02-02T11:13:56;101065.25;;;9.30;100.00
44979;BME280;67464;52.438;-1.904;2023-02-02T11:16:22;101061.81;;;9.03;100.00
44979;BME280;67464;52.438;-1.904;2023-02-02T11:18:45;101060.88;;;9.56;100.00
44979;BME280;67464;52.438;-1.904;2023-02-02T11:21:17;101057.82;;;9.63;100.00
44979;BME280;67464;52.438;-1.904;2023-02-02T11:23:36;101053.36;;;9.48;100.00
44979;BME280;67464;52.438;-1.904;2023-02-02T11:26:01;101058.34;;;8.49;100.00
44979;BME280;67464;52.438;-1.904;2023-02-02T11:28:27;101052.17;;;8.79;100.00
44979;BME280;67464;52.438;-1.904;2023-02-02T11:30:52;101048.19;;;8.68;100.00
44979;BME280;67464;52.438;-1.904;2023-02-02T11:33:25;101041.21;;;8.95;100.00
44979;BME280;67464;52.438;-1.904;2023-02-02T11:35:51;101042.84;;;9.08;100.00
44979;BME280;67464;52.438;-1.904;2023-02-02T11:38:12;101033.16;;;10.10;100.00
44979;BME280;67464;52.438;-1.904;2023-02-02T11:40:35;101032.42;;;9.54;100.00
44979;BME280;67464;52.438;-1.904;2023-02-02T11:43:02;101027.50;;;9.35;100.00
44979;BME280;67464;52.438;-1.904;2023-02-02T11:45:31;101036.40;;;9.04;100.00
44979;BME280;67464;52.438;-1.904;2023-02-02T11:47:50;101036.58;;;8.70;100.00
44979;BME280;67464;52.438;-1.904;2023-02-02T11:50:21;101032.71;;;8.43;100.00
44979;BME280;67464;52.438;-1.904;2023-02-02T11:52:45;101029.46;;;8.58;100.00
44979;BME280;67464;52.438;-1.904;2023-02-02T11:55:14;101026.49;;;8.43;100.00
44979;BME280;67464;52.438;-1.904;2023-02-02T11:57:33;101016.49;;;8.40;100.00
44979;BME280;67464;52.438;-1.904;2023-02-02T12:00:05;101024.34;;;8.92;100.00
44979;BME280;67464;52.438;-1.904;2023-02-02T12:02:27;101015.02;;;8.95;100.00
44979;BME280;67464;52.438;-1.904;2023-02-02T12:04:51;101023.26;;;9.03;100.00
44979;BME280;67464;52.438;-1.904;2023-02-02T12:07:17;101029.54;;;9.44;100.00
44979;BME280;67464;52.438;-1.904;2023-02-02T12:09:41;101026.93;;;8.69;100.00
44979;BME280;67464;52.438;-1.904;2023-02-02T12:12:14;101024.84;;;9.44;100.00
44979;BME280;67464;52.438;-1.904;2023-02-02T12:14:38;101023.86;;;9.11;100.00
44979;BME280;67464;52.438;-1.904;2023-02-02T12:17:09;101021.26;;;9.47;100.00
44979;BME280;67464;52.438;-1.904;2023-02-02T12:19:39;101015.87;;;8.96;100.00
44979;BME280;67464;52.438;-1.904;2023-02-02T12:21:54;101012.88;;;9.13;100.00
44979;BME280;67464;52.438;-1.904;2023-02-02T12:24:26;101012.19;;;8.39;100.00
44979;BME280;67464;52.438;-1.904;2023-02-02T12:26:45;101011.01;;;8.90;100.00
44979;BME280;67464;52.438;-1.904;2023-02-02T12:29:22;101006.92;;;8.48;100.00
44979;BME280;67464;52.438;-1.904;2023-02-02T12:31:38;100998.64;;;8.33;100.00
44979;BME280;67464;52.438;-1.904;2023-02-02T12:34:03;101000.50;;;8.68;100.00
44979;BME280;67464;52.438;-1.904;2023-02-02T12:36:31;100999.23;;;9.26;100.00
44979;BME280;67464;52.438;-1.904;2023-02-02T12:39:02;101006.76;;;9.31;100.00